Time;durP1;ratioP1;P1;durP2;ratioP2;P2;SDS_P1;SDS_P2;PMS_P1;PMS_P2;Temp;Humidity;BMP_temperature;BMP_pressure;BME280_temperature;BME280_humidity;BME280_pressure;Samples;Min_cycle;Max_cycle;Signal;HPM_P1;HPM_P2
2022/11/19 00:00:48;;;;;;;20.45;11.73;;;;;;;3.74;100.00;100079.78;5073907;28;20028;-75
2022/11/19 00:03:18;;;;;;;19.15;11.10;;;;;;;3.70;100.00;100075.88;5077312;28;20032;-75
2022/11/19 00:05:47;;;;;;;18.05;10.63;;;;;;;3.69;100.00;100078.91;5077047;28;20028;-75
2022/11/19 00:08:17;;;;;;;18.13;10.73;;;;;;;3.68;100.00;100069.03;5077275;28;20523;-75
2022/11/19 00:10:43;;;;;;;17.38;10.68;;;;;;;3.66;100.00;100076.69;5041134;28;20370;-75
2022/11/19 00:13:08;;;;;;;15.45;9.73;;;;;;;3.66;100.00;100063.78;5053355;28;20021;-75
2022/11/19 00:15:34;;;;;;;18.27;10.65;;;;;;;3.62;100.00;100073.59;5060223;28;20035;-75
2022/11/19 00:18:00;;;;;;;18.80;10.68;;;;;;;3.62;100.00;100079.09;5056966;28;20093;-75
2022/11/19 00:20:25;;;;;;;15.23;10.20;;;;;;;3.61;100.00;100082.94;5043644;28;20425;-75
2022/11/19 00:22:52;;;;;;;14.73;10.00;;;;;;;3.60;100.00;100080.47;5078212;28;20036;-75
2022/11/19 00:25:18;;;;;;;14.45;9.52;;;;;;;3.57;100.00;100070.84;5076740;28;20040;-75
2022/11/19 00:27:43;;;;;;;16.50;9.55;;;;;;;3.55;100.00;100068.34;5060194;28;20112;-75
2022/11/19 00:30:09;;;;;;;13.63;9.35;;;;;;;3.55;100.00;100075.75;5076804;28;20029;-75
2022/11/19 00:32:35;;;;;;;15.52;9.55;;;;;;;3.53;100.00;100076.00;5040170;28;20557;-75
2022/11/19 00:35:00;;;;;;;13.30;9.40;;;;;;;3.51;100.00;100072.69;5077735;28;20415;-75
2022/11/19 00:37:25;;;;;;;14.95;8.57;;;;;;;3.52;100.00;100074.34;5076841;28;20028;-75
2022/11/19 00:39:52;;;;;;;16.83;9.85;;;;;;;3.49;100.00;100068.53;5076018;28;20036;-75
2022/11/19 00:42:17;;;;;;;15.38;9.50;;;;;;;3.49;100.00;100066.63;5060083;28;20033;-75
2022/11/19 00:44:43;;;;;;;15.50;10.27;;;;;;;3.49;100.00;100068.53;5059714;28;20032;-75
2022/11/19 00:47:08;;;;;;;17.48;9.27;;;;;;;3.50;100.00;100075.69;5075442;28;20021;-75
2022/11/19 00:49:34;;;;;;;15.23;9.45;;;;;;;3.49;100.00;100080.34;5059790;28;20086;-75
2022/11/19 00:51:59;;;;;;;14.45;9.57;;;;;;;3.51;100.00;100082.81;5058434;28;20052;-75
2022/11/19 00:54:25;;;;;;;14.07;9.23;;;;;;;3.51;100.00;100094.66;5059394;28;20062;-75
2022/11/19 00:56:50;;;;;;;15.82;9.73;;;;;;;3.52;100.00;100093.56;5059517;28;20028;-75
2022/11/19 00:59:16;;;;;;;15.32;9.13;;;;;;;3.52;100.00;100101.81;5076318;28;20440;-75
2022/11/19 01:01:41;;;;;;;14.93;9.52;;;;;;;3.53;100.00;100094.38;5042958;28;20472;-75
2022/11/19 01:04:06;;;;;;;14.45;9.57;;;;;;;3.53;100.00;100094.38;5076164;28;20024;-75
2022/11/19 01:06:32;;;;;;;14.02;9.85;;;;;;;3.54;100.00;100096.88;5059613;28;20032;-75
2022/11/19 01:08:57;;;;;;;15.52;9.27;;;;;;;3.51;100.00;100097.41;5075931;28;20447;-75
2022/11/19 01:11:28;;;;;;;16.38;9.00;;;;;;;3.55;100.00;100105.94;5059301;28;20028;-75
2022/11/19 01:13:53;;;;;;;15.13;8.80;;;;;;;3.54;100.00;100088.66;5059572;28;20542;-75
2022/11/19 01:16:24;;;;;;;12.80;8.73;;;;;;;3.53;100.00;100084.22;5076157;28;20024;-75
2022/11/19 01:18:50;;;;;;;15.18;8.38;;;;;;;3.56;100.00;100102.09;5080064;28;20029;-75
2022/11/19 01:21:15;;;;;;;13.07;8.70;;;;;;;3.54;100.00;100098.81;5039940;28;20033;-75
2022/11/19 01:23:41;;;;;;;13.40;9.05;;;;;;;3.54;100.00;100090.56;5058840;28;20493;-75
2022/11/19 01:26:07;;;;;;;14.48;9.40;;;;;;;3.54;100.00;100098.81;5059145;28;20028;-75
2022/11/19 01:28:32;;;;;;;14.77;8.35;;;;;;;3.55;100.00;100103.19;5059278;28;20481;-75
2022/11/19 01:30:58;;;;;;;13.30;7.97;;;;;;;3.55;100.00;100100.47;5075883;28;20032;-75
2022/11/19 01:33:23;;;;;;;13.18;7.93;;;;;;;3.58;100.00;100102.69;5075542;28;20120;-75
2022/11/19 01:35:59;;;;;;;11.02;7.38;;;;;;;3.54;100.00;100093.31;5075068;28;20032;-75
2022/11/19 01:38:25;;;;;;;11.65;7.32;;;;;;;3.52;100.00;100093.56;5059037;28;20036;-75
2022/11/19 01:40:50;;;;;;;15.00;7.60;;;;;;;3.53;100.00;100102.63;5040303;28;20140;-75
2022/11/19 01:43:16;;;;;;;15.48;7.80;;;;;;;3.52;100.00;100103.72;5058842;28;20032;-75
2022/11/19 01:45:48;;;;;;;13.07;8.13;;;;;;;3.52;100.00;100104.53;5067744;28;20047;-75
2022/11/19 01:48:27;;;;;;;;;;;;;;;3.54;100.00;100104.31;5059946;28;20036;-75
2022/11/19 01:51:00;;;;;;;11.32;6.70;;;;;;;3.55;100.00;100111.44;5057226;28;19930;-75
2022/11/19 01:53:28;;;;;;;13.27;6.75;;;;;;;3.57;100.00;100114.75;5075206;28;20024;-75
2022/11/19 01:55:53;;;;;;;10.73;7.20;;;;;;;3.55;100.00;100114.19;5104552;28;20079;-75
2022/11/19 01:58:20;;;;;;;10.93;6.53;;;;;;;3.55;100.00;100114.19;5069432;28;20034;-75
2022/11/19 02:00:46;;;;;;;12.48;6.85;;;;;;;3.57;100.00;100118.34;5038404;28;20064;-75
2022/11/19 02:03:11;;;;;;;11.32;6.93;;;;;;;3.57;100.00;100114.75;5092202;28;20098;-75
2022/11/19 02:05:37;;;;;;;12.93;7.30;;;;;;;3.56;100.00;100113.91;5075135;28;20040;-75
2022/11/19 02:08:06;;;;;;;11.07;6.10;;;;;;;3.55;100.00;100122.41;5058247;28;20138;-75
2022/11/19 02:10:58;;;;;;;11.98;7.10;;;;;;;3.54;100.00;100120.78;5058287;28;20035;-75
2022/11/19 02:13:58;;;;;;;12.43;6.78;;;;;;;3.55;100.00;100119.69;5074932;28;20443;-75
2022/11/19 02:16:32;;;;;;;10.45;6.60;;;;;;;3.53;100.00;100125.41;5038528;28;20040;-75
2022/11/19 02:19:00;;;;;;;10.93;6.57;;;;;;;3.54;100.00;100137.25;5079133;28;20115;-75
2022/11/19 02:21:30;;;;;;;10.32;6.53;;;;;;;3.50;100.00;100125.94;5074732;28;20500;-75
2022/11/19 02:24:26;;;;;;;14.18;6.93;;;;;;;3.47;100.00;100131.94;5082659;28;20029;-75
2022/11/19 02:27:11;;;;;;;10.25;6.05;;;;;;;3.46;100.00;100130.28;5075377;28;20039;-75
2022/11/19 02:30:10;;;;;;;8.82;5.53;;;;;;;3.45;100.00;100138.75;5040910;28;20477;-75
2022/11/19 02:33:04;;;;;;;8.18;5.43;;;;;;;3.43;100.00;100139.03;5057519;28;20074;-75
2022/11/19 02:35:54;;;;;;;9.90;5.47;;;;;;;3.40;100.00;100145.03;5057900;28;20028;-75
2022/11/19 02:38:39;;;;;;;9.18;5.28;;;;;;;3.35;100.00;100151.28;5095896;28;20062;-75
2022/11/19 02:41:33;;;;;;;8.43;5.63;;;;;;;3.34;100.00;100146.91;5057079;28;20567;-75
2022/11/19 02:47:03;;;;;;;9.70;5.33;;;;;;;3.28;100.00;100149.81;5075362;28;20105;-75
2022/11/19 02:49:30;;;;;;;7.65;4.95;;;;;;;3.24;100.00;100160.47;5091350;28;20024;-76
2022/11/19 02:51:55;;;;;;;8.43;5.20;;;;;;;3.21;100.00;100166.47;5041989;28;20056;-75
2022/11/19 02:54:21;;;;;;;7.57;4.78;;;;;;;3.21;100.00;100160.16;5074032;28;20054;-75
2022/11/19 02:56:54;;;;;;;9.50;4.97;;;;;;;3.21;100.00;100157.41;5074223;28;20028;-75
2022/11/19 03:04:52;;;;;;;7.40;4.50;;;;;;;3.14;100.00;100171.31;5074410;28;20040;-75
2022/11/19 03:07:18;;;;;;;7.57;4.70;;;;;;;3.11;100.00;100172.63;5056087;28;20033;-75
2022/11/19 03:09:47;;;;;;;6.88;4.20;;;;;;;3.11;100.00;100178.13;5049747;28;20025;-75
2022/11/19 03:12:50;;;;;;;6.68;4.28;;;;;;;3.08;100.00;100177.81;5061916;28;20099;-75
2022/11/19 03:18:15;;;;;;;7.57;4.20;;;;;;;3.03;100.00;100188.72;5064183;28;20613;-75
2022/11/19 03:20:45;;;;;;;5.82;4.03;;;;;;;3.02;100.00;100182.41;5077710;28;20431;-75
2022/11/19 03:23:13;;;;;;;5.18;3.83;;;;;;;2.99;100.00;100182.91;5060886;28;20036;-75
2022/11/19 03:25:44;;;;;;;9.93;4.22;;;;;;;2.99;100.00;100182.06;5044301;28;20072;-75
2022/11/19 03:28:12;;;;;;;6.95;4.05;;;;;;;2.94;100.00;100188.31;5057740;28;20485;-75
2022/11/19 03:30:38;;;;;;;7.95;4.05;;;;;;;2.93;100.00;100186.66;5057680;28;20098;-75
2022/11/19 03:33:14;;;;;;;7.78;3.70;;;;;;;2.93;100.00;100191.31;5064559;28;20028;-75
2022/11/19 03:35:42;;;;;;;8.38;3.85;;;;;;;2.90;100.00;100192.66;5061536;28;20154;-75
2022/11/19 03:38:10;;;;;;;7.22;3.70;;;;;;;2.83;100.00;100190.06;5077698;28;20036;-75
2022/11/19 03:40:36;;;;;;;6.47;3.90;;;;;;;2.81;100.00;100192.22;5057667;28;20025;-75
2022/11/19 03:43:02;;;;;;;6.13;3.42;;;;;;;2.82;100.00;100191.16;5061154;28;20032;-75
2022/11/19 03:45:31;;;;;;;7.00;3.78;;;;;;;2.80;100.00;100200.72;5060831;28;20040;-75
2022/11/19 03:47:57;;;;;;;6.03;3.40;;;;;;;2.78;100.00;100195.47;5057809;28;20032;-75
2022/11/19 03:50:48;;;;;;;5.90;4.00;;;;;;;2.76;100.00;100191.31;5059567;28;20070;-75
2022/11/19 03:53:14;;;;;;;7.13;4.28;;;;;;;2.71;100.00;100183.84;5052159;28;20020;-75
2022/11/19 03:55:43;;;;;;;6.65;3.80;;;;;;;2.69;100.00;100191.50;5080628;28;20025;-75
2022/11/19 03:58:09;;;;;;;7.68;3.60;;;;;;;2.67;100.00;100189.00;5044403;28;20472;-75
2022/11/19 04:00:34;;;;;;;6.63;3.30;;;;;;;2.65;100.00;100184.84;5060359;28;20031;-75
2022/11/19 04:03:00;;;;;;;6.63;3.40;;;;;;;2.63;100.00;100187.00;5077371;28;20445;-75
2022/11/19 04:05:25;;;;;;;7.82;3.55;;;;;;;2.61;100.00;100189.97;5043985;28;20024;-75
2022/11/19 04:07:51;;;;;;;5.15;3.28;;;;;;;2.60;100.00;100184.78;5027765;28;20057;-75
2022/11/19 04:10:16;;;;;;;6.10;3.53;;;;;;;2.58;100.00;100190.47;5027007;28;20412;-74
2022/11/19 04:12:42;;;;;;;5.40;3.38;;;;;;;2.57;100.00;100185.28;5077043;28;20024;-74
2022/11/19 04:15:11;;;;;;;5.28;3.08;;;;;;;2.53;100.00;100190.41;5060296;28;20043;-75
2022/11/19 04:17:36;;;;;;;8.27;4.30;;;;;;;2.54;100.00;100194.00;5060725;28;20104;-75
2022/11/19 04:20:03;;;;;;;5.25;3.80;;;;;;;2.53;100.00;100197.78;5076953;28;20032;-75
2022/11/19 04:22:28;;;;;;;5.82;3.80;;;;;;;2.50;100.00;100190.06;5059384;28;20064;-75
2022/11/19 04:24:54;;;;;;;8.63;3.63;;;;;;;2.50;100.00;100195.56;5076369;28;20032;-75
2022/11/19 04:27:19;;;;;;;6.00;3.95;;;;;;;2.44;100.00;100194.63;5076906;28;20450;-75
2022/11/19 04:29:45;;;;;;;5.80;3.35;;;;;;;2.51;100.00;100197.22;5076974;28;20024;-75
2022/11/19 04:32:10;;;;;;;5.10;3.25;;;;;;;2.50;100.00;100201.03;5060312;28;20028;-75
2022/11/19 04:34:36;;;;;;;5.22;3.25;;;;;;;2.42;100.00;100203.13;5059911;28;20648;-75
2022/11/19 04:37:01;;;;;;;5.28;3.08;;;;;;;2.43;100.00;100204.78;5060221;28;20033;-75
2022/11/19 04:39:26;;;;;;;5.97;3.22;;;;;;;2.44;100.00;100205.59;5076416;28;20029;-75
2022/11/19 04:41:52;;;;;;;5.05;3.03;;;;;;;2.44;100.00;100214.66;5059722;28;20028;-75
2022/11/19 04:44:17;;;;;;;7.18;3.13;;;;;;;2.41;100.00;100206.94;5076601;28;20032;-75
2022/11/19 04:46:43;;;;;;;4.03;2.92;;;;;;;2.43;100.00;100207.53;5060900;28;20024;-75
2022/11/19 04:49:08;;;;;;;4.07;2.78;;;;;;;2.44;100.00;100208.34;5059767;28;20401;-75
2022/11/19 04:51:34;;;;;;;6.15;3.00;;;;;;;2.42;100.00;100226.94;5058503;28;20041;-75
2022/11/19 04:53:59;;;;;;;3.50;2.78;;;;;;;2.41;100.00;100231.59;5059358;28;20032;-75
2022/11/19 04:56:25;;;;;;;3.38;2.78;;;;;;;2.47;100.00;100244.31;5076354;28;20086;-74
2022/11/19 04:58:50;;;;;;;4.78;2.70;;;;;;;2.49;100.00;100235.03;5053230;28;20032;-75
2022/11/19 05:01:16;;;;;;;5.15;3.25;;;;;;;2.51;100.00;100239.19;5042817;28;20051;-75
2022/11/19 05:03:41;;;;;;;4.57;2.80;;;;;;;2.54;100.00;100243.34;5059517;28;20055;-75
2022/11/19 05:06:07;;;;;;;4.38;2.72;;;;;;;2.59;100.00;100241.53;5077561;28;20024;-75
2022/11/19 05:08:32;;;;;;;3.88;2.83;;;;;;;2.56;100.00;100241.97;5059700;28;20021;-75
2022/11/19 05:10:57;;;;;;;4.57;2.83;;;;;;;2.59;100.00;100236.03;5076189;28;20032;-74
2022/11/19 05:13:23;;;;;;;4.65;2.67;;;;;;;2.63;100.00;100234.44;5075796;28;20036;-75
2022/11/19 05:15:48;;;;;;;6.47;2.55;;;;;;;2.64;100.00;100232.53;5075793;28;20087;-75
2022/11/19 05:18:14;;;;;;;6.63;2.60;;;;;;;2.66;100.00;100224.91;5075949;28;20036;-75
2022/11/19 05:20:39;;;;;;;5.45;2.80;;;;;;;2.67;100.00;100226.53;5059050;28;20032;-75
2022/11/19 05:23:05;;;;;;;4.32;2.45;;;;;;;2.66;100.00;100230.38;5059219;28;20043;-75
2022/11/19 05:25:30;;;;;;;5.03;2.40;;;;;;;2.67;100.00;100226.53;5042303;28;20035;-75
2022/11/19 05:27:56;;;;;;;6.47;2.42;;;;;;;2.68;100.00;100230.97;5058831;28;20032;-75
2022/11/19 05:30:21;;;;;;;6.68;3.53;;;;;;;2.64;100.00;100243.50;5075804;28;20662;-75
2022/11/19 05:32:47;;;;;;;5.30;2.47;;;;;;;2.62;100.00;100243.75;5057698;28;20103;-75
2022/11/19 05:35:12;;;;;;;5.90;2.72;;;;;;;2.63;100.00;100241.84;5075875;28;20028;-75
2022/11/19 05:37:38;;;;;;;5.32;2.47;;;;;;;2.60;100.00;100243.16;5058823;28;20032;-75
2022/11/19 05:40:04;;;;;;;5.38;2.78;;;;;;;2.57;100.00;100248.31;5042082;28;20056;-75
2022/11/19 05:42:29;;;;;;;5.80;2.28;;;;;;;2.54;100.00;100263.34;5058958;28;20094;-75
2022/11/19 05:44:54;;;;;;;3.70;2.50;;;;;;;2.50;100.00;100264.09;5058766;28;20025;-75
2022/11/19 05:47:20;;;;;;;6.72;2.60;;;;;;;2.48;100.00;100256.13;5075145;28;20067;-75
2022/11/19 05:49:46;;;;;;;3.83;2.50;;;;;;;2.44;100.00;100249.47;5058501;28;20028;-75
2022/11/19 05:52:11;;;;;;;4.07;2.50;;;;;;;2.43;100.00;100253.28;5058395;28;20052;-75
2022/11/19 05:54:37;;;;;;;5.90;2.50;;;;;;;2.47;100.00;100255.28;5074811;28;20051;-75
2022/11/19 05:57:03;;;;;;;4.35;2.67;;;;;;;2.44;100.00;100261.25;5076553;28;20024;-75
2022/11/19 05:59:28;;;;;;;4.45;2.38;;;;;;;2.38;100.00;100259.50;5058739;28;20480;-75
2022/11/19 06:01:54;;;;;;;5.07;2.60;;;;;;;2.37;100.00;100255.09;5074872;28;20028;-75
2022/11/19 06:04:19;;;;;;;5.65;2.42;;;;;;;2.31;100.00;100257.97;5055000;28;20033;-75
2022/11/19 06:06:45;;;;;;;7.25;2.45;;;;;;;2.30;100.00;100253.59;5068961;28;20104;-75
2022/11/19 06:09:10;;;;;;;4.38;2.88;;;;;;;2.29;100.00;100258.25;5058220;28;20074;-75
2022/11/19 06:11:49;;;;;;;5.47;2.80;;;;;;;2.29;100.00;100257.41;5058576;28;20040;-75
2022/11/19 06:14:24;;;;;;;4.05;2.33;;;;;;;2.19;100.00;100269.81;5056715;28;20025;-75
2022/11/19 06:16:50;;;;;;;4.70;2.40;;;;;;;2.22;100.00;100263.03;5068129;28;20028;-75
2022/11/19 06:19:17;;;;;;;5.05;2.47;;;;;;;2.20;100.00;100265.19;5058343;28;20028;-75
2022/11/19 06:21:42;;;;;;;5.45;2.50;;;;;;;2.13;100.00;100270.81;5054932;28;20040;-76
2022/11/19 06:24:08;;;;;;;4.93;2.25;;;;;;;2.14;100.00;100272.47;5066582;28;20082;-75
2022/11/19 06:26:33;;;;;;;3.08;2.25;;;;;;;2.12;100.00;100282.84;5074563;28;20040;-75
2022/11/19 06:28:59;;;;;;;4.38;2.45;;;;;;;2.11;100.00;100277.59;5074724;28;20078;-75
2022/11/19 06:31:24;;;;;;;5.38;2.30;;;;;;;2.07;100.00;100281.94;5057987;28;20028;-75
2022/11/19 06:33:52;;;;;;;6.18;2.55;;;;;;;2.05;100.00;100289.53;5062035;28;20036;-75
2022/11/19 06:36:18;;;;;;;4.05;1.90;;;;;;;2.02;100.00;100296.34;5068168;28;20047;-75
2022/11/19 06:38:43;;;;;;;4.78;2.35;;;;;;;2.05;100.00;100297.75;5071000;28;20029;-75
2022/11/19 06:41:09;;;;;;;4.05;2.22;;;;;;;2.04;100.00;100293.38;5055265;28;20032;-75
2022/11/19 06:43:34;;;;;;;3.78;2.53;;;;;;;1.99;100.00;100294.91;5058014;28;20028;-75
2022/11/19 06:45:59;;;;;;;6.82;2.40;;;;;;;1.94;100.00;100292.06;5073653;28;20032;-75
2022/11/19 06:48:25;;;;;;;6.95;2.38;;;;;;;1.91;100.00;100299.94;5057935;28;20025;-75
2022/11/19 06:50:50;;;;;;;4.85;2.33;;;;;;;1.93;100.00;100315.06;5073803;28;20538;-75
2022/11/19 06:53:16;;;;;;;4.18;2.55;;;;;;;1.93;100.00;100315.06;5057447;28;20024;-75
2022/11/19 06:55:41;;;;;;;5.65;2.20;;;;;;;1.90;100.00;100303.78;5074018;28;20115;-75
2022/11/19 06:58:07;;;;;;;5.72;2.50;;;;;;;1.89;100.00;100308.38;5057626;28;20407;-75
2022/11/19 07:00:33;;;;;;;5.68;2.70;;;;;;;1.90;100.00;100315.56;5057649;28;20567;-75
2022/11/19 07:02:58;;;;;;;4.55;2.58;;;;;;;1.90;100.00;100320.19;5057484;28;20052;-75
2022/11/19 07:05:23;;;;;;;5.07;2.60;;;;;;;1.91;100.00;100330.91;5074276;28;20488;-75
2022/11/19 07:07:49;;;;;;;4.38;2.60;;;;;;;1.92;100.00;100327.09;5074200;28;20025;-75
2022/11/19 07:10:15;;;;;;;4.60;2.63;;;;;;;1.90;100.00;100331.97;5057264;28;20044;-75
2022/11/19 07:12:40;;;;;;;4.05;2.65;;;;;;;1.92;100.00;100332.59;5040751;28;20116;-75
2022/11/19 07:15:06;;;;;;;7.28;3.15;;;;;;;1.93;100.00;100336.97;5057389;28;20079;-75
2022/11/19 07:17:31;;;;;;;4.72;2.67;;;;;;;1.92;100.00;100342.69;5057379;28;20028;-75
2022/11/19 07:19:57;;;;;;;6.63;3.03;;;;;;;1.92;100.00;100340.78;5040719;28;20033;-75
2022/11/19 07:22:22;;;;;;;5.07;2.67;;;;;;;1.95;100.00;100344.94;5074189;28;20611;-75
2022/11/19 07:24:48;;;;;;;4.53;2.70;;;;;;;1.97;100.00;100337.31;5073706;28;20032;-76
2022/11/19 07:27:14;;;;;;;6.72;2.83;;;;;;;1.98;100.00;100337.09;5024407;28;20028;-75
2022/11/19 07:29:40;;;;;;;5.90;2.50;;;;;;;1.99;100.00;100346.13;5073946;28;20040;-75
2022/11/19 07:32:05;;;;;;;4.57;2.75;;;;;;;2.01;100.00;100354.94;5022950;28;20020;-75
2022/11/19 07:34:31;;;;;;;4.10;2.40;;;;;;;2.03;100.00;100355.50;5073884;28;20062;-75
2022/11/19 07:36:56;;;;;;;6.05;2.83;;;;;;;2.00;100.00;100356.84;5057483;28;20032;-75
2022/11/19 07:39:22;;;;;;;5.03;2.33;;;;;;;2.03;100.00;100371.13;5056938;28;20546;-75
2022/11/19 07:44:45;;;;;;;5.38;2.97;;;;;;;2.07;100.00;100386.03;5028893;28;20051;-75
2022/11/19 07:47:10;;;;;;;4.75;2.58;;;;;;;2.11;100.00;100393.50;5056948;28;20024;-75
2022/11/19 07:49:35;;;;;;;6.72;2.30;;;;;;;2.17;100.00;100397.19;5074000;28;20035;-75
2022/11/19 07:52:01;;;;;;;5.43;2.40;;;;;;;2.21;100.00;100396.47;5056433;28;20049;-75
2022/11/19 07:54:27;;;;;;;5.97;2.40;;;;;;;2.25;100.00;100399.56;5073215;28;20039;-75
2022/11/19 07:56:52;;;;;;;5.00;2.42;;;;;;;2.34;100.00;100400.84;5056204;28;20465;-75
2022/11/19 07:59:17;;;;;;;4.32;2.35;;;;;;;2.42;100.00;100400.47;5056648;28;20424;-75
2022/11/19 08:01:43;;;;;;;5.70;2.45;;;;;;;2.50;100.00;100406.63;5086524;28;20079;-75
2022/11/19 08:04:08;;;;;;;8.52;2.67;;;;;;;2.60;100.00;100404.94;5077257;28;20158;-75
2022/11/19 08:06:34;;;;;;;4.10;2.33;;;;;;;2.71;100.00;100402.41;5077261;28;20025;-75
2022/11/19 08:09:00;;;;;;;4.63;2.40;;;;;;;2.83;100.00;100406.75;5043835;28;20053;-75
2022/11/19 08:11:26;;;;;;;5.28;2.65;;;;;;;2.97;100.00;100415.50;5057391;28;20029;-75
2022/11/19 08:13:52;;;;;;;4.82;2.25;;;;;;;3.06;100.00;100402.22;5040336;28;20039;-75
2022/11/19 08:18:11;;;;;;;5.13;2.60;;;;;;;3.18;100.00;100407.66;5053426;28;20025;-76
2022/11/19 08:19:08;;;;;;;6.20;3.25;;;;;;;3.31;100.00;100404.56;5078107;28;20028;-75
2022/11/19 08:21:34;;;;;;;3.90;2.78;;;;;;;3.43;100.00;100415.50;5044097;28;20024;-75
2022/11/19 08:24:00;;;;;;;5.10;2.75;;;;;;;3.53;100.00;100415.66;5060071;28;20057;-76
2022/11/19 08:26:25;;;;;;;4.97;2.20;;;;;;;3.63;100.00;100415.81;5060572;28;20024;-76
2022/11/19 08:28:51;;;;;;;5.95;2.47;;;;;;;3.73;100.00;100416.00;5060164;28;20078;-76
2022/11/19 08:31:17;;;;;;;4.40;2.40;;;;;;;3.84;100.00;100424.38;5043599;28;20473;-75
2022/11/19 08:33:42;;;;;;;3.10;2.38;;;;;;;3.94;100.00;100428.09;5043941;28;20051;-76
2022/11/19 08:36:08;;;;;;;4.30;2.67;;;;;;;4.07;100.00;100421.44;5060054;28;20039;-76
2022/11/19 08:38:33;;;;;;;4.90;2.60;;;;;;;4.20;100.00;100421.03;5076810;28;20067;-76
2022/11/19 08:43:43;;;;;;;6.90;3.33;;;;;;;4.41;100.00;100435.91;5062580;28;20028;-75
2022/11/19 08:46:08;;;;;;;4.80;2.97;;;;;;;4.49;100.00;100423.63;5059841;28;20626;-75
2022/11/19 08:48:34;;;;;;;4.65;3.00;;;;;;;4.57;100.00;100420.44;5059868;28;20048;-76
2022/11/19 08:51:06;;;;;;;6.60;3.13;;;;;;;4.63;100.00;100410.34;5073750;28;20068;-75
2022/11/19 08:53:31;;;;;;;4.10;2.80;;;;;;;4.68;100.00;100400.22;5074992;28;20434;-75
2022/11/19 08:55:57;;;;;;;7.53;2.88;;;;;;;4.75;100.00;100394.50;5055399;28;20028;-75
2022/11/19 08:58:22;;;;;;;7.28;3.53;;;;;;;4.81;100.00;100409.97;5068102;28;20032;-75
2022/11/19 09:00:48;;;;;;;5.63;2.97;;;;;;;4.88;100.00;100427.13;5076187;28;20033;-75
2022/11/19 09:03:14;;;;;;;7.10;3.38;;;;;;;4.96;100.00;100436.00;5076230;28;20032;-75
2022/11/19 09:05:40;;;;;;;7.20;3.10;;;;;;;5.03;100.00;100440.22;5059194;28;20106;-75
2022/11/19 09:08:06;;;;;;;7.97;4.20;;;;;;;5.13;100.00;100456.00;5075453;28;20028;-75
2022/11/19 09:10:32;;;;;;;6.38;3.08;;;;;;;5.22;100.00;100453.63;5057962;28;20059;-75
2022/11/19 09:12:57;;;;;;;7.70;3.35;;;;;;;5.28;100.00;100450.66;5052014;28;20025;-75
2022/11/19 09:15:23;;;;;;;8.95;3.30;;;;;;;5.35;100.00;100454.03;5059519;28;20032;-75
2022/11/19 09:17:48;;;;;;;7.30;3.40;;;;;;;5.42;100.00;100456.56;5076166;28;20025;-76
2022/11/19 09:20:15;;;;;;;6.85;3.35;;;;;;;5.49;100.00;100453.59;5059224;28;20485;-77
2022/11/19 09:22:40;;;;;;;7.00;3.78;;;;;;;5.57;100.00;100461.38;5076070;28;20031;-76
2022/11/19 09:25:07;;;;;;;9.27;3.97;;;;;;;5.68;100.00;100460.38;5077006;28;20029;-77
2022/11/19 09:27:33;;;;;;;7.10;3.70;;;;;;;5.77;100.00;100452.47;5050706;28;20028;-76
2022/11/19 09:29:58;;;;;;;8.90;4.20;;;;;;;5.91;100.00;100461.13;5057548;28;20040;-76
2022/11/19 09:32:24;;;;;;;8.75;4.20;;;;;;;6.06;100.00;100465.94;5051468;28;20028;-76
2022/11/19 09:34:49;;;;;;;8.40;3.70;;;;;;;6.21;100.00;100468.78;5059373;28;20063;-75
2022/11/19 09:37:15;;;;;;;8.82;3.97;;;;;;;6.37;100.00;100472.47;5076867;28;20116;-76
2022/11/19 09:39:41;;;;;;;7.95;3.75;;;;;;;6.52;100.00;100478.09;5038506;28;20048;-77
2022/11/19 09:42:15;;;;;;;6.70;3.35;;;;;;;6.64;100.00;100475.94;5051177;28;20031;-77
2022/11/19 09:45:01;;;;;;;7.35;4.00;;;;;;;6.78;100.00;100481.78;5079447;28;20060;-76
2022/11/19 09:47:30;;;;;;;9.73;3.55;;;;;;;6.90;100.00;100481.56;5075832;28;20028;-76
2022/11/19 09:50:27;;;;;;;8.95;3.40;;;;;;;6.97;100.00;100479.38;5090863;28;20032;-75
2022/11/19 09:53:12;;;;;;;7.30;3.40;;;;;;;7.09;100.00;100488.25;5041449;28;20037;-76
2022/11/19 09:55:43;;;;;;;8.95;3.38;;;;;;;7.19;100.00;100493.00;5078667;28;20092;-75
2022/11/19 09:58:32;;;;;;;8.02;3.78;;;;;;;7.28;100.00;100479.47;5061622;28;20104;-76
2022/11/19 10:00:58;;;;;;;7.03;3.20;;;;;;;7.37;100.00;100484.16;5075145;28;20578;-76
2022/11/19 10:03:24;;;;;;;5.70;2.88;;;;;;;7.48;100.00;100478.66;5038467;28;20036;-75
2022/11/19 10:06:29;;;;;;;5.53;2.83;;;;;;;7.60;100.00;100474.56;5085510;28;20532;-76
2022/11/19 10:09:22;;;;;;;8.00;3.40;;;;;;;7.71;100.00;100480.88;5016775;28;20036;-75
2022/11/19 10:12:09;;;;;;;5.15;2.85;;;;;;;7.83;100.00;100478.69;5047177;28;20036;-75
2022/11/19 10:15:02;;;;;;;5.20;3.00;;;;;;;7.96;100.00;100479.25;5028760;28;20120;-77
2022/11/19 10:17:33;;;;;;;7.22;2.95;;;;;;;8.06;100.00;100485.59;5050533;28;20065;-77
2022/11/19 10:20:10;;;;;;;6.75;2.80;;;;;;;8.18;100.00;100481.72;5032280;28;20074;-77
2022/11/19 10:22:47;;;;;;;5.72;2.30;;;;;;;8.27;100.00;100474.50;5050116;28;20033;-76
2022/11/19 10:25:26;;;;;;;9.45;3.05;;;;;;;8.39;100.00;100471.47;5063013;28;20535;-76
2022/11/19 10:27:56;;;;;;;7.57;3.10;;;;;;;8.49;100.00;100474.19;5036032;28;20060;-76
2022/11/19 10:30:23;;;;;;;7.28;2.72;;;;;;;8.58;100.00;100474.44;4994149;28;20483;-77
2022/11/19 10:32:57;;;;;;;9.05;3.28;;;;;;;8.67;100.00;100475.53;5039795;28;20041;-77
2022/11/19 10:35:27;;;;;;;10.05;3.03;;;;;;;8.77;100.00;100477.44;5053184;28;20071;-76
2022/11/19 10:37:58;;;;;;;7.07;2.38;;;;;;;8.85;100.00;100469.38;5006079;28;20071;-76
2022/11/19 10:40:25;;;;;;;5.85;2.50;;;;;;;8.94;100.00;100469.59;5062032;28;20485;-76
2022/11/19 10:42:53;;;;;;;5.78;2.55;;;;;;;9.03;100.00;100470.69;5052265;28;20024;-76
2022/11/19 10:45:22;;;;;;;9.20;2.53;;;;;;;9.12;100.00;100480.03;5049626;28;20452;-77
2022/11/19 10:47:54;;;;;;;5.93;2.60;;;;;;;9.20;100.00;100477.81;5054179;28;20139;-76
2022/11/19 10:50:21;;;;;;;6.10;2.40;;;;;;;9.27;100.00;100487.44;5073666;28;20017;-77
2022/11/19 10:52:58;;;;;;;5.78;2.38;;;;;;;9.34;100.00;100485.19;5057695;28;20039;-76
2022/11/19 10:55:40;;;;;;;9.38;2.58;;;;;;;9.39;100.00;100496.25;5091124;28;20559;-76
2022/11/19 10:58:17;;;;;;;7.97;2.15;;;;;;;9.42;100.00;100478.22;5057824;28;20037;-77
2022/11/19 11:00:43;;;;;;;6.88;2.35;;;;;;;9.48;100.00;100487.34;5057394;28;20484;-76
2022/11/19 11:03:31;;;;;;;10.15;2.47;;;;;;;9.52;100.00;100477.31;5075537;28;20033;-76
2022/11/19 11:06:05;;;;;;;9.45;2.00;;;;;;;9.55;100.00;100472.00;5067684;28;20062;-76
2022/11/19 11:08:31;;;;;;;7.10;2.28;;;;;;;9.62;100.00;100466.16;5074374;28;20036;-77
2022/11/19 11:10:56;;;;;;;6.15;1.85;;;;;;;9.69;100.00;100477.72;5059471;28;20033;-77
2022/11/19 11:16:42;;;;;;;9.45;2.33;;;;;;;9.84;100.00;100476.81;5073312;28;20029;-76
2022/11/19 11:19:17;;;;;;;11.15;2.08;;;;;;;9.90;100.00;100472.84;5087554;28;20032;-77
2022/11/19 11:21:43;;;;;;;6.25;2.20;;;;;;;9.92;100.00;100478.97;5040701;28;20033;-77
2022/11/19 11:24:12;;;;;;;4.95;2.03;;;;;;;10.02;100.00;100481.63;5057115;28;20043;-76
2022/11/19 11:26:40;;;;;;;6.45;1.40;;;;;;;10.14;100.00;100481.25;5057465;28;20131;-79
2022/11/19 11:29:11;;;;;;;7.55;2.00;;;;;;;10.22;100.00;100482.56;5040884;28;20085;-77
2022/11/19 11:31:38;;;;;;;8.63;2.03;;;;;;;10.45;100.00;100492.09;5085099;28;20484;-77
2022/11/19 11:34:05;;;;;;;6.63;1.63;;;;;;;10.75;100.00;100485.34;5076879;28;20032;-76
2022/11/19 11:36:32;;;;;;;7.78;1.75;;;;;;;10.61;100.00;100481.63;5077849;28;20028;-77
2022/11/19 11:38:59;;;;;;;6.05;1.95;;;;;;;10.53;100.00;100488.66;5077900;28;20460;-77
2022/11/19 11:41:38;;;;;;;5.32;2.00;;;;;;;10.48;100.00;100489.53;5061290;28;20036;-77
2022/11/19 11:44:13;;;;;;;5.57;1.65;;;;;;;10.48;100.00;100489.53;5068941;28;20029;-77
2022/11/19 11:46:52;;;;;;;6.60;1.80;;;;;;;10.47;100.00;100487.91;5061774;28;20052;-77
2022/11/19 11:49:24;;;;;;;6.82;1.80;;;;;;;10.46;100.00;100485.41;5045230;28;20029;-77